Sunday, October 21, 2018, 1:33 PM EDT
Back to Local

KFDK, Frederick, Frederick Municipal Airport

Location: Frederick, MD, United States Lat: 39.417
Local Time: 1:33 PM EDT (17:33 GMT) Lon: -77.374
Time Zone: US/Eastern Elev: 301 ft

Show me the last for .
Show Decoded

2018-10-21 12:47 METAR KFDK 211647Z 33018G26KT 10SM BKN050 11/M01 A3016 =
2018-10-21 11:47 METAR KFDK 211547Z 33018G28KT 10SM BKN050 09/M02 A3015 =
2018-10-21 10:47 METAR KFDK 211447Z 33016G23KT 10SM BKN050 10/M01 A3015 =
2018-10-21 09:47 METAR KFDK 211347Z 33013G22KT 10SM SCT050 09/M01 A3014 =
2018-10-21 08:47 METAR KFDK 211247Z 3400816KT 10SM SCT055 08/00 A3012 =
2018-10-21 07:47 METAR KFDK 211147Z 33011G19KT 10SM SKC 07/01 A3007 =
2018-10-21 06:50 METAR KFDK 211050Z AUTO 33013G17KT 10SM CLR 07/01 A3002 RMK AO2 =
2018-10-21 06:45 METAR KFDK 211045Z AUTO 33009G18KT 10SM CLR 07/01 A3002 RMK AO2 =
2018-10-21 06:25 METAR KFDK 211025Z AUTO 34009G16KT 10SM SCT034 SCT046 BKN065 07/02 A3000 RMK AO2
                 =
2018-10-21 06:05 METAR KFDK 211005Z AUTO 32014G21KT 10SM BKN034 BKN048 BKN060 08/02 A2997 RMK AO2
                 =
2018-10-21 05:45 METAR KFDK 210945Z AUTO 32013G24KT 10SM BKN034 BKN060 08/02 A2995 RMK AO2 =
2018-10-21 05:25 METAR KFDK 210925Z AUTO 32014G22KT 10SM BKN032 OVC039 08/02 A2992 RMK AO2 =
2018-10-21 05:05 METAR KFDK 210905Z AUTO 32009G17KT 10SM OVC028 08/03 A2991 RMK AO2 =
2018-10-21 04:45 METAR KFDK 210845Z AUTO 30006KT 10SM OVC030 08/03 A2989 RMK AO2 =
2018-10-21 04:25 METAR KFDK 210825Z AUTO 28013G19KT 10SM OVC035 08/03 A2987 RMK AO2 =
2018-10-21 04:05 METAR KFDK 210805Z AUTO 28006KT 10SM BKN038 BKN046 OVC060 08/03 A2985 RMK AO2 =
2018-10-21 03:45 METAR KFDK 210745Z AUTO 29008G15KT 10SM SCT046 OVC055 08/03 A2985 RMK AO2 =
2018-10-21 03:25 METAR KFDK 210725Z AUTO 27013G18KT 10SM SCT065 08/03 A2984 RMK AO2 =
2018-10-21 03:05 METAR KFDK 210705Z AUTO 28007KT 10SM SCT048 BKN055 BKN070 08/03 A2983 RMK AO2
                 LTG DSNT SE =
2018-10-21 02:45 METAR KFDK 210645Z AUTO 27007KT 10SM SCT055 08/03 A2983 RMK AO2 =
2018-10-21 02:25 METAR KFDK 210625Z AUTO 28008KT 10SM CLR 08/04 A2981 RMK AO2 =
2018-10-21 02:05 METAR KFDK 210605Z AUTO 27008G14KT 10SM CLR 08/05 A2981 RMK AO2 =
2018-10-21 01:45 METAR KFDK 210545Z AUTO 30006KT 10SM SCT120 08/06 A2980 RMK AO2 =
2018-10-21 01:25 METAR KFDK 210525Z AUTO 29005KT 10SM BKN120 08/06 A2981 RMK AO2 LTG DSNT E =
2018-10-21 01:05 METAR KFDK 210505Z AUTO 25005KT 10SM SCT090 OVC120 08/06 A2979 RMK AO2 =
2018-10-21 00:45 METAR KFDK 210445Z AUTO 00000KT 10SM -RA SCT012 BKN035 OVC085 08/06 A2978 RMK
                 AO2 P0002 =
2018-10-21 00:25 METAR KFDK 210425Z AUTO 30014G19KT 10SM RA SCT026 BKN035 OVC065 11/07 A2982 RMK
                 AO2 LTG DSNT E =
2018-10-21 00:05 METAR KFDK 210405Z AUTO 30003KT 10SM -RA SCT040 BKN050 OVC070 11/07 A2980 RMK
                 AO2 =
2018-10-20 23:45 METAR KFDK 210345Z AUTO 00000KT 10SM SCT048 BKN080 OVC090 10/07 A2979 RMK AO2 =
2018-10-20 23:25 METAR KFDK 210325Z AUTO 16003KT 10SM SCT080 BKN095 OVC120 10/08 A2978 RMK AO2
                 LTG DSNT E =
2018-10-20 23:05 METAR KFDK 210305Z AUTO 00000KT 10SM BKN095 OVC120 10/08 A2977 RMK AO2 =
2018-10-20 22:45 METAR KFDK 210245Z AUTO 13003KT 10SM BKN095 OVC120 10/08 A2977 RMK AO2 =
2018-10-20 22:25 METAR KFDK 210225Z AUTO 13003KT 10SM SCT060 SCT070 OVC085 10/08 A2977 RMK AO2 =
2018-10-20 22:05 METAR KFDK 210205Z AUTO 00000KT 10SM -DZ SCT060 BKN070 OVC085 11/08 A2976 RMK
                 AO2 LTG DSNT W =
2018-10-20 21:45 METAR KFDK 210145Z AUTO 27006KT 10SM -RA SCT021 BKN060 OVC070 11/07 A2976 RMK
                 AO2 LTG DSNT W =
2018-10-20 21:25 METAR KFDK 210125Z AUTO 29022G29KT 7SM -RA SCT021 BKN060 OVC080 12/08 A2977 RMK
                 AO2 LTG DSNT W =
2018-10-20 21:05 METAR KFDK 210105Z AUTO 29016G30KT 10SM SCT060 SCT070 OVC095 15/05 A2974 RMK AO2
                 LTG DSNT W =
2018-10-20 20:47 METAR KFDK 210047Z 26004KT 10SM VCTS SCT090 BKN110 15/06 A2971 =
2018-10-20 19:47 METAR KFDK 202347Z 25006KT 10SM SKC 14/06 A2971 =
2018-10-20 18:47 METAR KFDK 202247Z 28010KT 10SM SKC 16/06 A2970 RMK LTG DSNT W NW =
2018-10-20 17:48 METAR KFDK 202148Z 28016G21KT 10SM SCT090 18/05 A2970 =
2018-10-20 16:47 METAR KFDK 202047Z 27014G19KT 10SM SKC 19/07 A2969 =
2018-10-20 15:47 METAR KFDK 201947Z 28012G19KT BKN050 BKN070 19/07 A2972 =
2018-10-20 14:47 METAR KFDK 201847Z 29010G18KT 10SM BKN070 19/09 A2974 =
2018-10-20 13:47 METAR KFDK 201747Z 30010G20KT 10SM BKN044 BKN050 18/09 A2978 =

Support USWX by starting your Amazon purchase here.